Home > Products > Valid Products > MTR

000
SAUS43 KDLH 050057
MTRGNA
METAR KGNA 050056Z AUTO 06007KT 21/13 A3000 RMK AO1 SLP154 T02110128





000
SAUS43 KDLH 042357
MTRGNA
METAR KGNA 042356Z AUTO 06010KT 21/13 A3000 RMK AO1 SLP153 T02060133
10222 20172 56008





000
SAUS43 KDLH 042357
MTRGNA
METAR KGNA 042356Z AUTO 06010KT 21/13 A3000 RMK AO1 SLP153 T02060133
10222 20172 56008





000
SAUS43 KDLH 042257
MTRGNA
METAR KGNA 042256Z AUTO 06010G17KT 22/14 A3001 RMK AO1 SLP157
T02170139





000
SAUS43 KDLH 042257
MTRGNA
METAR KGNA 042256Z AUTO 06010G17KT 22/14 A3001 RMK AO1 SLP157
T02170139





000
SAUS43 KDLH 042158
MTRGNA
METAR KGNA 042156Z AUTO 06009G16KT 22/14 A3001 RMK AO1 SLP157
T02170144





000
SAUS43 KDLH 042057
MTRGNA
METAR KGNA 042056Z AUTO 07007KT 18/13 A3002 RMK AO1 SLP164 T01780133
56009





000
SAUS43 KDLH 041957
MTRGNA
METAR KGNA 041956Z AUTO 07009KT 17/13 A3003 RMK AO1 SLP166 T01720133





000
SAUS43 KDLH 041957
MTRGNA
METAR KGNA 041956Z AUTO 07009KT 17/13 A3003 RMK AO1 SLP166 T01720133





000
SAUS43 KDLH 041857
MTRGNA
METAR KGNA 041856Z AUTO 07008KT 18/13 A3003 RMK AO1 SLP167 T01780133





000
SAUS43 KDLH 041757
MTRGNA
METAR KGNA 041756Z AUTO 06005KT 19/13 A3005 RMK AO1 SLP172 T01890133
10200 20156 50001





000
SAUS43 KDLH 041657
MTRGNA
METAR KGNA 041656Z AUTO 06006KT 18/13 A3006 RMK AO1 SLP178 T01780128





000
SAUS43 KDLH 041557
MTRGNA
METAR KGNA 041556Z AUTO 07006KT 17/13 A3006 RMK AO1 SLP177 T01720128





000
SAUS43 KDLH 041457
MTRGNA
METAR KGNA 041456Z AUTO 06006KT 17/13 A3005 RMK AO1 SLP172 T01720133
51002





000
SAUS43 KDLH 041457
MTRGNA
METAR KGNA 041456Z AUTO 06006KT 17/13 A3005 RMK AO1 SLP172 T01720133
51002





000
SAUS43 KDLH 041357
MTRGNA
METAR KGNA 041356Z AUTO 06007KT 17/13 A3005 RMK AO1 SLP172 T01720133





000
SAUS43 KDLH 041257
MTRGNA
METAR KGNA 041256Z AUTO 07005KT 17/14 A3004 RMK AO1 SLP170 T01720139





000
SAUS43 KDLH 041157
MTRGNA
METAR KGNA 041156Z AUTO 04004KT 16/14 A3004 RMK AO1 SLP170 T01560139
10167 20139 53005





000
SAUS43 KDLH 041057
MTRGNA
METAR KGNA 041056Z AUTO 00000KT 14/13 A3002 RMK AO1 SLP164 T01440133





000
SAUS43 KDLH 041057
MTRGNA
METAR KGNA 041056Z AUTO 00000KT 14/13 A3002 RMK AO1 SLP164 T01440133





000
SAUS43 KDLH 040957
MTRGNA
METAR KGNA 040956Z AUTO 04003KT 14/13 A3003 RMK AO1 SLP165 T01440128





000
SAUS43 KDLH 040857
MTRGNA
METAR KGNA 040856Z AUTO 00000KT 16/14 A3003 RMK AO1 SLP164 T01560139
52004





000
SAUS43 KDLH 040857
MTRGNA
METAR KGNA 040856Z AUTO 00000KT 16/14 A3003 RMK AO1 SLP164 T01560139
52004





000
SAUS43 KDLH 040757
MTRGNA
METAR KGNA 040756Z AUTO 05003KT 16/14 A3002 RMK AO1 SLP162 T01560139





000
SAUS43 KDLH 040657
MTRGNA
METAR KGNA 040656Z AUTO 10004KT 16/13 A3002 RMK AO1 SLP164 T01560128





000
SAUS43 KDLH 040557
MTRGNA
METAR KGNA 040556Z AUTO 04004KT 17/13 A3001 RMK AO1 SLP160 T01670133
10178 20139 401940122 53003





000
SAUS43 KDLH 040557
MTRGNA
METAR KGNA 040556Z AUTO 04004KT 17/13 A3001 RMK AO1 SLP160 T01670133
10178 20139 401940122 53003





000
SAUS43 KDLH 040457
MTRGNA
METAR KGNA 040456Z AUTO 00000KT 15/12 A3001 RMK AO1 SLP161 T01500122





000
SAUS43 KDLH 040457
MTRGNA
METAR KGNA 040456Z AUTO 00000KT 15/12 A3001 RMK AO1 SLP161 T01500122





000
SAUS43 KDLH 040357
MTRGNA
METAR KGNA 040356Z AUTO 00000KT 14/12 A3000 RMK AO1 SLP158 T01390122





000
SAUS43 KDLH 040258
MTRGNA
METAR KGNA 040256Z AUTO 00000KT 14/13 A3000 RMK AO1 SLP158 T01440128
53010





000
SAUS43 KDLH 040258
MTRGNA
METAR KGNA 040256Z AUTO 00000KT 14/13 A3000 RMK AO1 SLP158 T01440128
53010





000
SAUS43 KDLH 040157
MTRGNA
METAR KGNA 040156Z AUTO 00000KT 14/12 A2999 RMK AO1 SLP153 T01440122





000
SAUS43 KDLH 040057
MTRGNA
METAR KGNA 040056Z AUTO 06005KT 18/13 A2997 RMK AO1 SLP146 T01780133





000
SAUS43 KDLH 032357
MTRGNA
METAR KGNA 032356Z AUTO 06005KT 16/13 A2997 RMK AO1 SLP149 T01610128
10194 20161 58006





000
SAUS43 KDLH 032357
MTRGNA
METAR KGNA 032356Z AUTO 06005KT 16/13 A2997 RMK AO1 SLP149 T01610128
10194 20161 58006





000
SAUS43 KDLH 032257
MTRGNA
METAR KGNA 032256Z AUTO 06003KT 18/12 A2998 RMK AO1 SLP150 T01780122





000
SAUS43 KDLH 032257
MTRGNA
METAR KGNA 032256Z AUTO 06003KT 18/12 A2998 RMK AO1 SLP150 T01780122





000
SAUS43 KDLH 032157
MTRGNA
METAR KGNA 032156Z AUTO 07004KT 18/13 A2999 RMK AO1 SLP153 T01830128





000
SAUS43 KDLH 032057
MTRGNA
METAR KGNA 032056Z AUTO 07003KT 19/13 A2999 RMK AO1 SLP153 T01890128
58006





000
SAUS43 KDLH 031957
MTRGNA
METAR KGNA 031956Z AUTO 00000KT 19/13 A3000 RMK AO1 SLP158 T01940128





000
SAUS43 KDLH 031957
MTRGNA
METAR KGNA 031956Z AUTO 00000KT 19/13 A3000 RMK AO1 SLP158 T01940128





000
SAUS43 KDLH 031857
MTRGNA
METAR KGNA 031856Z AUTO 07003KT 18/12 A3001 RMK AO1 SLP161 T01780122





000
SAUS43 KDLH 031857
MTRGNA
METAR KGNA 031856Z AUTO 07003KT 18/12 A3001 RMK AO1 SLP161 T01780122





000
SAUS43 KDLH 031757
MTRGNA
METAR KGNA 031756Z AUTO 00000KT 18/12 A3001 RMK AO1 SLP160 T01780122
10178 20128 57001





000
SAUS43 KDLH 031757
MTRGNA
METAR KGNA 031756Z AUTO 00000KT 18/12 A3001 RMK AO1 SLP160 T01780122
10178 20128 57001





000
SAUS43 KDLH 031657
MTRGNA
METAR KGNA 031656Z AUTO 07003KT 17/13 A3001 RMK AO1 SLP159 T01720128





000
SAUS43 KDLH 031657
MTRGNA
METAR KGNA 031656Z AUTO 07003KT 17/13 A3001 RMK AO1 SLP159 T01720128





000
SAUS43 KDLH 031557
MTRGNA
METAR KGNA 031556Z AUTO 07004KT 17/13 A3001 RMK AO1 SLP161 T01670128





000
SAUS43 KDLH 031458
MTRGNA
METAR KGNA 031456Z AUTO 12003KT 16/13 A3001 RMK AO1 SLP161 T01610128
50011





000
SAUS43 KDLH 031357
MTRGNA
METAR KGNA 031356Z AUTO 00000KT 14/13 A3002 RMK AO1 SLP164 T01440128





000
SAUS43 KDLH 031357
MTRGNA
METAR KGNA 031356Z AUTO 00000KT 14/13 A3002 RMK AO1 SLP164 T01440128





000
SAUS43 KDLH 031257
MTRGNA
METAR KGNA 031256Z AUTO 08004KT 14/13 A3000 RMK AO1 SLP158 T01390128





000
SAUS43 KDLH 031257
MTRGNA
METAR KGNA 031256Z AUTO 08004KT 14/13 A3000 RMK AO1 SLP158 T01390128





000
SAUS43 KDLH 031157
MTRGNA
METAR KGNA 031156Z AUTO 00000KT 13/12 A2998 RMK AO1 SLP150 T01280117
10133 20122 53003





000
SAUS43 KDLH 031157
MTRGNA
METAR KGNA 031156Z AUTO 00000KT 13/12 A2998 RMK AO1 SLP150 T01280117
10133 20122 53003





000
SAUS43 KDLH 031058
MTRGNA
METAR KGNA 031056Z AUTO 00000KT 13/12 A2997 RMK AO1 SLP147 T01280117





000
SAUS43 KDLH 031058
MTRGNA
METAR KGNA 031056Z AUTO 00000KT 13/12 A2997 RMK AO1 SLP147 T01280117





000
SAUS43 KDLH 030957
MTRGNA
METAR KGNA 030956Z AUTO 00000KT 13/12 A2996 RMK AO1 SLP143 T01280117





000
SAUS43 KDLH 030857
MTRGNA
METAR KGNA 030856Z AUTO 00000KT 13/12 A2997 RMK AO1 SLP146 T01280117
56005





000
SAUS43 KDLH 030757
MTRGNA
METAR KGNA 030756Z AUTO 00000KT 13/12 A2997 RMK AO1 SLP148 T01280117





000
SAUS43 KDLH 030757
MTRGNA
METAR KGNA 030756Z AUTO 00000KT 13/12 A2997 RMK AO1 SLP148 T01280117





000
SAUS43 KDLH 030657
MTRGNA
METAR KGNA 030656Z AUTO 00000KT 13/12 A2998 RMK AO1 SLP150 T01280117





000
SAUS43 KDLH 030657
MTRGNA
METAR KGNA 030656Z AUTO 00000KT 13/12 A2998 RMK AO1 SLP150 T01280117





000
SAUS43 KDLH 030557
MTRGNA
METAR KGNA 030556Z AUTO 00000KT 13/12 A2998 RMK AO1 SLP153 T01330122
10167 20122 401940111 53001





000
SAUS43 KDLH 030557
MTRGNA
METAR KGNA 030556Z AUTO 00000KT 13/12 A2998 RMK AO1 SLP153 T01330122
10167 20122 401940111 53001





000
SAUS43 KDLH 030457
MTRGNA
METAR KGNA 030456Z AUTO 00000KT 15/13 A2998 RMK AO1 SLP149 T01500133





000
SAUS43 KDLH 030357
MTRGNA
METAR KGNA 030356Z AUTO 04004KT 16/13 A2998 RMK AO1 SLP151 T01560133





000
SAUS43 KDLH 030258
MTRGNA
METAR KGNA 030256Z AUTO 02003KT 14/13 A2998 RMK AO1 SLP152 T01440133
51012





000
SAUS43 KDLH 030158
MTRGNA
METAR KGNA 030156Z AUTO 00000KT 14/13 A2997 RMK AO1 SLP149 T01440133





000
SAUS43 KDLH 030057
MTRGNA
METAR KGNA 030056Z AUTO 00000KT 15/12 A2995 RMK AO1 SLP142 T01500122





000
SAUS43 KDLH 030057
MTRGNA
METAR KGNA 030056Z AUTO 00000KT 15/12 A2995 RMK AO1 SLP142 T01500122





000
SAUS43 KDLH 022357
MTRGNA
METAR KGNA 022356Z AUTO 05003KT 17/11 A2994 RMK AO1 SLP139 T01670111
10194 20150 56008





000
SAUS43 KDLH 022257
MTRGNA
METAR KGNA 022256Z AUTO 05004KT 17/11 A2995 RMK AO1 SLP140 T01720111





000
SAUS43 KDLH 022158
MTRGNA
METAR KGNA 022156Z AUTO 06005KT 18/11 A2996 RMK AO1 SLP142 T01780111





000
SAUS43 KDLH 022057
MTRGNA
METAR KGNA 022056Z AUTO 06003KT 18/11 A2997 RMK AO1 SLP146 T01830111
58001





000
SAUS43 KDLH 021957
MTRGNA
METAR KGNA 021956Z AUTO 00000KT 17/13 A2998 RMK AO1 SLP150 T01720128





000
SAUS43 KDLH 021857
MTRGNA
METAR KGNA 021856Z AUTO 06005KT 17/12 A2996 RMK AO1 SLP143 T01670117





000
SAUS43 KDLH 021857
MTRGNA
METAR KGNA 021856Z AUTO 06005KT 17/12 A2996 RMK AO1 SLP143 T01670117





000
SAUS43 KDLH 021757
MTRGNA
METAR KGNA 021756Z AUTO 06007KT 15/12 A2997 RMK AO1 SLP148 T01500117
10167 20111 58016





000
SAUS43 KDLH 021657
MTRGNA
METAR KGNA 021656Z AUTO 05004KT 16/12 A3000 RMK AO1 SLP158 T01610122





000
SAUS43 KDLH 021657
MTRGNA
METAR KGNA 021656Z AUTO 05004KT 16/12 A3000 RMK AO1 SLP158 T01610122





000
SAUS43 KDLH 021557
MTRGNA
METAR KGNA 021556Z AUTO 00000KT 13/11 A3003 RMK AO1 SLP169 T01280111





000
SAUS43 KDLH 021458
MTRGNA
METAR KGNA 021456Z AUTO 25004KT 12/11 A3002 RMK AO1 SLP164 T01220111
53022





000
SAUS43 KDLH 021357
MTRGNA
METAR KGNA 021356Z AUTO 34003KT 13/11 A2997 RMK AO1 SLP148 T01330111





000
SAUS43 KDLH 021257
MTRGNA
METAR KGNA 021256Z AUTO 00000KT 13/12 A2997 RMK AO1 SLP145 T01330117





000
SAUS43 KDLH 021257
MTRGNA
METAR KGNA 021256Z AUTO 00000KT 13/12 A2997 RMK AO1 SLP145 T01330117





000
SAUS43 KDLH 021157
MTRGNA
METAR KGNA 021156Z AUTO 02003KT 12/10 A2995 RMK AO1 SLP141 T01170100
10150 20111 51002





000
SAUS43 KDLH 021157
MTRGNA
METAR KGNA 021156Z AUTO 02003KT 12/10 A2995 RMK AO1 SLP141 T01170100
10150 20111 51002





000
SAUS43 KDLH 021058
MTRGNA
METAR KGNA 021056Z AUTO 02003KT 13/12 A2995 RMK AO1 SLP139 T01280117





000
SAUS43 KDLH 020957
MTRGNA
METAR KGNA 020956Z AUTO 34003KT 13/11 A2995 RMK AO1 SLP139 T01280111





000
SAUS43 KDLH 020858
MTRGNA
METAR KGNA 020856Z AUTO 33005KT 13/12 A2994 RMK AO1 SLP138 T01280117
53005





000
SAUS43 KDLH 020757
MTRGNA
METAR KGNA 020756Z AUTO 00000KT 14/12 A2993 RMK AO1 SLP134 T01390122





000
SAUS43 KDLH 020657
MTRGNA
METAR KGNA 020656Z AUTO VRB03KT 14/13 A2994 RMK AO1 SLP136 T01390128





000
SAUS43 KDLH 020657
MTRGNA
METAR KGNA 020656Z AUTO VRB03KT 14/13 A2994 RMK AO1 SLP136 T01390128





000
SAUS43 KDLH 020557
MTRGNA
METAR KGNA 020556Z AUTO 00000KT 14/13 A2993 RMK AO1 SLP133 T01390128
10194 20133 401940128 50002





000
SAUS43 KDLH 020557
MTRGNA
METAR KGNA 020556Z AUTO 00000KT 14/13 A2993 RMK AO1 SLP133 T01390128
10194 20133 401940128 50002





000
SAUS43 KDLH 020457
MTRGNA
METAR KGNA 020456Z AUTO 00000KT 13/13 A2993 RMK AO1 SLP135 T01330128





000
SAUS43 KDLH 020358
MTRGNA
METAR KGNA 020356Z AUTO 00000KT 16/14 A2993 RMK AO1 SLP133 T01560144





000
SAUS43 KDLH 020358
MTRGNA
METAR KGNA 020356Z AUTO 00000KT 16/14 A2993 RMK AO1 SLP133 T01560144





000
SAUS43 KDLH 020258
MTRGNA
METAR KGNA 020256Z AUTO 00000KT 16/15 A2992 RMK AO1 SLP131 T01610150
53012





000
SAUS43 KDLH 020157
MTRGNA
METAR KGNA 020156Z AUTO 00000KT 17/15 A2991 RMK AO1 SLP126 T01670150





000
SAUS43 KDLH 020157
MTRGNA
METAR KGNA 020156Z AUTO 00000KT 17/15 A2991 RMK AO1 SLP126 T01670150





    US Dept of Commerce
    National Oceanic and Atmospheric Administration
    National Weather Service
    1325 East West Highway
    Silver Spring, MD 20910
    Page Author: NWS Internet Services Team
Disclaimer
Information Quality
Credits
Glossary
Privacy Policy
Freedom of Information Act (FOIA)
About Us
Career Opportunities